createdAt,value
2018-07-08T00:01:19.378Z,17.40
2018-07-08T00:03:47.925Z,17.30
2018-07-08T00:06:16.482Z,17.20
2018-07-08T00:08:45.072Z,17.20
2018-07-08T00:11:13.703Z,17.20
2018-07-08T00:13:42.239Z,17.30
2018-07-08T00:16:10.872Z,17.30
2018-07-08T00:18:39.419Z,17.30
2018-07-08T00:21:08.035Z,17.10
2018-07-08T00:26:04.888Z,17.10
2018-07-08T00:28:33.492Z,17.10
2018-07-08T00:35:58.577Z,17.20
2018-07-08T00:38:27.145Z,17.20
2018-07-08T00:40:55.656Z,17.20
2018-07-08T00:43:24.185Z,17.20
2018-07-08T00:45:52.729Z,17.20
2018-07-08T00:48:21.320Z,17.20
2018-07-08T00:50:49.884Z,17.10
2018-07-08T00:53:18.390Z,17.20
2018-07-08T00:55:46.931Z,17.10
2018-07-08T00:58:15.506Z,17.20
2018-07-08T01:00:44.123Z,17.10
2018-07-08T01:03:12.683Z,17.00
2018-07-08T01:05:41.226Z,16.90
2018-07-08T01:08:09.861Z,16.90
2018-07-08T01:10:38.401Z,16.80
2018-07-08T01:13:07.044Z,16.80
2018-07-08T01:15:35.637Z,16.70
2018-07-08T01:23:00.591Z,16.60
2018-07-08T01:30:30.803Z,16.70
2018-07-08T01:32:59.383Z,16.70
2018-07-08T01:35:27.971Z,16.70
2018-07-08T01:37:56.575Z,16.80
2018-07-08T01:40:25.193Z,16.70
2018-07-08T01:42:53.732Z,16.70
2018-07-08T01:45:22.249Z,16.60
2018-07-08T01:47:50.798Z,16.60
2018-07-08T01:50:19.314Z,16.60
2018-07-08T01:52:47.856Z,16.70
2018-07-08T01:55:16.443Z,16.70
2018-07-08T01:57:45.020Z,16.70
2018-07-08T02:00:13.556Z,16.60
2018-07-08T02:02:42.148Z,16.60
2018-07-08T02:05:10.748Z,16.70
2018-07-08T02:07:39.316Z,16.60
2018-07-08T02:10:07.886Z,16.50
2018-07-08T02:12:36.512Z,16.40
2018-07-08T02:15:05.387Z,16.30
2018-07-08T02:17:33.941Z,16.30
2018-07-08T02:20:02.478Z,16.30
2018-07-08T02:22:31.118Z,16.30
2018-07-08T02:24:59.701Z,16.20
2018-07-08T02:27:28.347Z,16.20
2018-07-08T02:29:57.000Z,16.20
2018-07-08T02:32:26.118Z,16.20
2018-07-08T02:34:54.953Z,16.20
2018-07-08T02:37:23.552Z,16.20
2018-07-08T02:39:52.123Z,16.10
2018-07-08T02:42:20.708Z,16.10
2018-07-08T02:44:49.353Z,16.10
2018-07-08T02:47:17.916Z,16.20
2018-07-08T02:49:46.980Z,16.20
2018-07-08T02:52:15.630Z,16.20
2018-07-08T02:54:44.155Z,16.20
2018-07-08T02:57:12.713Z,16.20
2018-07-08T02:59:41.245Z,16.20
2018-07-08T03:02:09.754Z,16.20
2018-07-08T03:04:38.307Z,16.20
2018-07-08T03:07:06.979Z,16.20
2018-07-08T03:09:35.515Z,16.20
2018-07-08T03:12:04.073Z,16.10
2018-07-08T03:19:29.002Z,15.90
2018-07-08T03:21:57.512Z,15.90
2018-07-08T03:24:26.054Z,16.00
2018-07-08T03:26:54.600Z,16.00
2018-07-08T03:29:23.135Z,16.10
2018-07-08T03:31:51.706Z,16.10
2018-07-08T03:34:20.250Z,16.10
2018-07-08T03:39:17.025Z,16.10
2018-07-08T03:41:45.592Z,16.10
2018-07-08T03:44:14.085Z,16.00
2018-07-08T03:46:43.514Z,16.00
2018-07-08T03:49:12.135Z,15.90
2018-07-08T03:51:40.653Z,15.80
2018-07-08T03:54:15.747Z,15.70
2018-07-08T03:56:44.326Z,15.60
2018-07-08T03:59:12.837Z,15.60
2018-07-08T04:01:41.383Z,15.60
2018-07-08T04:04:09.912Z,15.60
2018-07-08T04:06:38.458Z,15.60
2018-07-08T04:09:07.964Z,15.60
2018-07-08T04:11:36.519Z,15.60
2018-07-08T04:14:05.096Z,15.60
2018-07-08T04:16:33.616Z,15.70
2018-07-08T04:19:02.128Z,15.60
2018-07-08T04:21:30.694Z,15.60
2018-07-08T04:23:59.197Z,15.50
2018-07-08T04:26:28.013Z,15.60
2018-07-08T04:28:56.547Z,15.60
2018-07-08T04:33:53.325Z,15.50
2018-07-08T04:36:21.884Z,15.40
2018-07-08T04:38:50.429Z,15.40
2018-07-08T04:41:18.956Z,15.50
2018-07-08T04:43:47.561Z,15.60
2018-07-08T04:46:16.109Z,15.60
2018-07-08T04:48:44.676Z,15.60
2018-07-08T04:51:13.221Z,15.50
2018-07-08T04:56:09.980Z,15.40
2018-07-08T04:58:38.557Z,15.40
2018-07-08T05:01:07.153Z,15.40
2018-07-08T05:03:35.711Z,15.50
2018-07-08T05:06:04.276Z,15.50
2018-07-08T05:08:32.818Z,15.50
2018-07-08T05:11:01.337Z,15.50
2018-07-08T05:13:29.864Z,15.50
2018-07-08T05:15:58.421Z,15.60
2018-07-08T05:18:26.979Z,15.70
2018-07-08T05:20:55.529Z,15.70
2018-07-08T05:23:24.120Z,15.70
2018-07-08T05:25:52.656Z,15.70
2018-07-08T05:28:21.162Z,15.70
2018-07-08T05:30:49.732Z,15.80
2018-07-08T05:33:18.302Z,15.80
2018-07-08T05:35:47.003Z,15.80
2018-07-08T05:38:15.413Z,15.80
2018-07-08T05:40:43.969Z,15.90
2018-07-08T05:43:12.489Z,15.80
2018-07-08T05:45:41.039Z,15.80
2018-07-08T05:48:09.581Z,15.80
2018-07-08T05:50:38.177Z,15.90
2018-07-08T05:53:06.766Z,16.20
2018-07-08T05:55:35.348Z,16.60
2018-07-08T05:58:03.915Z,17.00
2018-07-08T06:00:32.511Z,17.40
2018-07-08T06:03:01.090Z,17.80
2018-07-08T06:05:29.624Z,18.10
2018-07-08T06:07:58.150Z,18.40
2018-07-08T06:10:26.718Z,18.60
2018-07-08T06:12:55.289Z,18.70
2018-07-08T06:15:23.918Z,18.80
2018-07-08T06:20:20.695Z,19.20
2018-07-08T06:22:49.260Z,19.30
2018-07-08T06:25:17.834Z,19.40
2018-07-08T06:27:46.401Z,19.50
2018-07-08T06:30:15.057Z,19.60
2018-07-08T06:32:43.653Z,19.80
2018-07-08T06:35:12.186Z,19.90
2018-07-08T06:40:08.995Z,20.10
2018-07-08T06:42:37.546Z,20.30
2018-07-08T06:45:06.246Z,20.40
2018-07-08T06:47:34.777Z,20.60
2018-07-08T06:50:03.390Z,20.60
2018-07-08T06:52:31.969Z,20.70
2018-07-08T06:55:00.513Z,20.80
2018-07-08T06:57:29.055Z,20.80
2018-07-08T06:59:57.590Z,20.90
2018-07-08T07:02:26.127Z,20.90
2018-07-08T07:07:22.888Z,21.10
2018-07-08T07:09:51.442Z,21.20
2018-07-08T07:12:20.040Z,21.20
2018-07-08T07:14:48.596Z,21.10
2018-07-08T07:17:17.176Z,21.10
2018-07-08T07:19:45.658Z,21.30
2018-07-08T07:22:14.156Z,21.50
2018-07-08T07:24:42.678Z,21.60
2018-07-08T07:27:11.210Z,21.80
2018-07-08T07:29:39.744Z,22.00
2018-07-08T07:32:08.317Z,22.10
2018-07-08T07:34:36.900Z,22.20
2018-07-08T07:37:05.721Z,22.30
2018-07-08T07:39:34.270Z,22.50
2018-07-08T07:42:02.791Z,22.50
2018-07-08T07:44:31.331Z,22.70
2018-07-08T07:46:59.863Z,22.60
2018-07-08T07:49:28.399Z,22.60
2018-07-08T07:51:56.929Z,22.70
2018-07-08T07:54:25.448Z,22.70
2018-07-08T07:56:54.037Z,22.90
2018-07-08T08:01:50.818Z,23.10
2018-07-08T08:04:19.392Z,23.10
2018-07-08T08:06:47.931Z,23.30
2018-07-08T08:09:16.548Z,23.50
2018-07-08T08:11:45.097Z,23.60
2018-07-08T08:14:13.626Z,23.30
2018-07-08T08:16:42.210Z,23.50
2018-07-08T08:19:10.780Z,23.80
2018-07-08T08:21:39.298Z,23.90
2018-07-08T08:24:07.941Z,23.90
2018-07-08T08:26:36.508Z,23.80
2018-07-08T08:31:33.216Z,23.90
2018-07-08T08:35:06.136Z,24.10
2018-07-08T08:37:39.964Z,24.20
2018-07-08T08:40:09.123Z,24.30
2018-07-08T08:42:37.702Z,24.40
2018-07-08T08:47:35.276Z,24.70
2018-07-08T08:50:04.179Z,24.70
2018-07-08T08:52:32.771Z,24.80
2018-07-08T08:55:01.274Z,24.60
2018-07-08T08:57:29.837Z,24.70
2018-07-08T08:59:58.402Z,24.90
2018-07-08T09:02:26.995Z,24.90
2018-07-08T09:04:55.555Z,24.80
2018-07-08T09:07:24.143Z,24.90
2018-07-08T09:09:52.666Z,25.00
2018-07-08T09:12:21.239Z,25.20
2018-07-08T09:14:49.780Z,25.30
2018-07-08T09:17:18.383Z,25.20
2018-07-08T09:19:46.938Z,25.30
2018-07-08T09:24:43.661Z,25.50
2018-07-08T09:27:12.227Z,25.60
2018-07-08T09:29:40.773Z,25.80
2018-07-08T09:32:09.346Z,25.90
2018-07-08T09:34:37.885Z,26.00
2018-07-08T09:37:06.471Z,26.10
2018-07-08T09:39:35.098Z,26.20
2018-07-08T09:42:03.730Z,26.20
2018-07-08T09:44:32.238Z,26.10
2018-07-08T09:47:00.814Z,26.10
2018-07-08T09:49:29.405Z,26.10
2018-07-08T09:51:57.960Z,26.00
2018-07-08T09:56:54.620Z,26.40
2018-07-08T09:59:23.195Z,26.50
2018-07-08T10:01:51.743Z,26.80
2018-07-08T10:04:21.613Z,26.90
2018-07-08T10:06:50.932Z,27.20
2018-07-08T10:09:20.709Z,27.00
2018-07-08T10:11:49.245Z,27.00
2018-07-08T10:14:19.046Z,27.30
2018-07-08T10:16:47.622Z,27.30
2018-07-08T10:21:45.606Z,27.20
2018-07-08T10:24:14.242Z,27.10
2018-07-08T10:26:42.832Z,27.20
2018-07-08T10:29:14.035Z,27.20
2018-07-08T10:31:49.410Z,27.30
2018-07-08T10:34:18.037Z,27.60
2018-07-08T10:36:46.728Z,27.60
2018-07-08T10:39:16.092Z,27.50
2018-07-08T10:41:44.661Z,27.20
2018-07-08T10:46:42.144Z,26.70
2018-07-08T10:49:10.917Z,26.30
2018-07-08T10:51:39.525Z,26.40
2018-07-08T10:54:08.438Z,26.90
2018-07-08T10:56:37.197Z,27.20
2018-07-08T10:59:06.631Z,27.40
2018-07-08T11:01:35.189Z,27.30
2018-07-08T11:04:03.782Z,27.70
2018-07-08T11:06:32.356Z,27.70
2018-07-08T11:09:00.854Z,27.90
2018-07-08T11:11:29.411Z,28.00
2018-07-08T11:13:57.947Z,28.20
2018-07-08T11:18:54.738Z,28.40
2018-07-08T11:21:23.342Z,28.80
2018-07-08T11:23:51.847Z,28.70
2018-07-08T11:26:20.377Z,28.60
2018-07-08T11:31:17.131Z,29.00
2018-07-08T11:33:45.657Z,29.40
2018-07-08T11:36:14.251Z,29.80
2018-07-08T11:38:42.981Z,29.90
2018-07-08T11:41:11.583Z,29.70
2018-07-08T11:43:40.136Z,29.80
2018-07-08T11:46:08.656Z,29.90
2018-07-08T11:48:37.244Z,30.20
2018-07-08T11:51:06.473Z,30.10
2018-07-08T11:53:35.006Z,30.20
2018-07-08T11:56:03.606Z,30.00
2018-07-08T11:58:32.195Z,30.20
2018-07-08T12:01:00.696Z,30.00
2018-07-08T12:05:57.622Z,29.50
2018-07-08T12:08:26.149Z,29.60
2018-07-08T12:10:54.698Z,29.40
2018-07-08T12:13:23.234Z,29.20
2018-07-08T12:18:19.953Z,29.30
2018-07-08T12:20:48.524Z,29.20
2018-07-08T12:23:17.089Z,29.30
2018-07-08T12:28:13.850Z,28.90
2018-07-08T12:33:10.571Z,28.90
2018-07-08T12:35:39.148Z,29.10
2018-07-08T12:38:07.697Z,29.40
2018-07-08T12:40:36.360Z,29.40
2018-07-08T12:43:04.957Z,29.50
2018-07-08T12:45:33.545Z,29.70
2018-07-08T12:48:02.119Z,30.00
2018-07-08T12:50:30.747Z,30.20
2018-07-08T12:52:59.307Z,30.20
2018-07-08T12:55:27.860Z,30.00
2018-07-08T12:57:56.426Z,29.80
2018-07-08T13:00:24.979Z,29.70
2018-07-08T13:05:21.741Z,29.50
2018-07-08T13:07:50.313Z,29.60
2018-07-08T13:10:18.903Z,29.70
2018-07-08T13:12:47.487Z,29.60
2018-07-08T13:15:16.032Z,29.70
2018-07-08T13:17:44.571Z,29.90
2018-07-08T13:20:13.183Z,29.60
2018-07-08T13:22:41.753Z,29.70
2018-07-08T13:25:10.278Z,29.60
2018-07-08T13:27:38.830Z,29.30
2018-07-08T13:32:36.346Z,29.30
2018-07-08T13:35:04.943Z,29.70
2018-07-08T13:37:33.548Z,30.00
2018-07-08T13:40:02.120Z,29.80
2018-07-08T13:42:30.690Z,30.00
2018-07-08T13:44:59.308Z,29.90
2018-07-08T13:47:27.875Z,30.00
2018-07-08T13:49:56.448Z,30.20
2018-07-08T13:52:25.010Z,29.90
2018-07-08T13:54:53.565Z,30.00
2018-07-08T13:57:22.134Z,29.90
2018-07-08T13:59:50.703Z,30.00
2018-07-08T14:02:19.248Z,30.10
2018-07-08T14:04:47.967Z,30.00
2018-07-08T14:09:44.776Z,29.40
2018-07-08T14:12:13.314Z,29.60
2018-07-08T14:17:10.020Z,29.50
2018-07-08T14:19:38.610Z,29.90
2018-07-08T14:22:07.139Z,29.90
2018-07-08T14:24:35.702Z,30.20
2018-07-08T14:27:04.371Z,30.50
2018-07-08T14:29:33.229Z,30.80
2018-07-08T14:32:01.689Z,31.00
2018-07-08T14:34:30.309Z,31.10
2018-07-08T14:36:58.849Z,31.50
2018-07-08T14:39:27.433Z,31.60
2018-07-08T14:41:55.985Z,31.90
2018-07-08T14:44:24.633Z,32.10
2018-07-08T14:46:53.227Z,32.50
2018-07-08T14:49:21.777Z,32.60
2018-07-08T14:51:50.378Z,32.20
2018-07-08T14:54:19.010Z,32.30
2018-07-08T14:56:47.581Z,32.80
2018-07-08T14:59:16.352Z,32.90
2018-07-08T15:01:44.933Z,32.90
2018-07-08T15:04:13.495Z,33.20
2018-07-08T15:06:42.029Z,33.30
2018-07-08T15:09:11.861Z,33.70
2018-07-08T15:11:40.424Z,34.20
2018-07-08T15:14:09.287Z,34.20
2018-07-08T15:16:37.847Z,34.20
2018-07-08T15:19:06.990Z,34.00
2018-07-08T15:21:35.696Z,34.10
2018-07-08T15:24:04.268Z,34.10
2018-07-08T15:26:32.860Z,34.30
2018-07-08T15:29:01.429Z,34.00
2018-07-08T15:31:29.990Z,34.10
2018-07-08T15:33:58.568Z,34.20
2018-07-08T15:36:27.172Z,34.00
2018-07-08T15:38:55.722Z,34.20
2018-07-08T15:41:24.276Z,34.20
2018-07-08T15:43:52.988Z,34.10
2018-07-08T15:46:21.555Z,33.70
2018-07-08T15:48:50.125Z,33.70
2018-07-08T15:51:18.641Z,33.10
2018-07-08T15:53:47.236Z,32.60
2018-07-08T15:56:15.795Z,32.40
2018-07-08T15:58:44.376Z,31.70
2018-07-08T16:01:12.957Z,32.00
2018-07-08T16:03:41.561Z,32.00
2018-07-08T16:06:10.168Z,32.10
2018-07-08T16:08:38.632Z,32.30
2018-07-08T16:11:07.936Z,32.00
2018-07-08T16:13:36.923Z,31.60
2018-07-08T16:16:05.583Z,30.60
2018-07-08T16:18:34.449Z,29.90
2018-07-08T16:21:03.628Z,29.40
2018-07-08T16:23:32.321Z,29.00
2018-07-08T16:26:01.055Z,28.80
2018-07-08T16:30:57.868Z,28.50
2018-07-08T16:33:26.468Z,28.30
2018-07-08T16:35:56.418Z,28.10
2018-07-08T16:38:24.976Z,28.10
2018-07-08T16:40:55.175Z,27.90
2018-07-08T16:43:23.872Z,27.90
2018-07-08T16:45:52.416Z,27.80
2018-07-08T16:50:49.241Z,27.50
2018-07-08T16:53:17.849Z,27.50
2018-07-08T16:55:46.468Z,27.30
2018-07-08T17:00:43.264Z,27.00
2018-07-08T17:03:11.860Z,27.00
2018-07-08T17:05:40.450Z,26.90
2018-07-08T17:08:09.038Z,26.90
2018-07-08T17:10:37.620Z,26.90
2018-07-08T17:13:06.352Z,26.90
2018-07-08T17:15:34.928Z,26.90
2018-07-08T17:18:03.465Z,26.80
2018-07-08T17:20:32.012Z,26.70
2018-07-08T17:23:00.569Z,26.70
2018-07-08T17:25:29.097Z,26.70
2018-07-08T17:27:57.665Z,26.80
2018-07-08T17:30:26.384Z,26.90
2018-07-08T17:32:54.953Z,26.90
2018-07-08T17:35:23.552Z,26.90
2018-07-08T17:37:52.113Z,26.70
2018-07-08T17:40:20.670Z,26.60
2018-07-08T17:42:49.242Z,26.60
2018-07-08T17:45:17.858Z,26.60
2018-07-08T17:50:14.590Z,26.60
2018-07-08T17:52:43.106Z,26.60
2018-07-08T17:55:11.629Z,26.60
2018-07-08T17:57:41.023Z,26.60
2018-07-08T18:00:09.638Z,26.50
2018-07-08T18:02:38.452Z,26.50
2018-07-08T18:05:06.992Z,26.50
2018-07-08T18:07:35.519Z,26.50
2018-07-08T18:12:32.775Z,26.10
2018-07-08T18:15:01.400Z,26.00
2018-07-08T18:17:29.979Z,25.80
2018-07-08T18:19:59.036Z,25.70
2018-07-08T18:22:27.806Z,25.60
2018-07-08T18:24:56.648Z,25.50
2018-07-08T18:27:25.316Z,25.50
2018-07-08T18:29:53.865Z,25.50
2018-07-08T18:32:22.397Z,25.50
2018-07-08T18:34:50.883Z,25.40
2018-07-08T18:37:19.552Z,25.40
2018-07-08T18:39:48.485Z,25.40
2018-07-08T18:42:17.104Z,25.40
2018-07-08T18:44:45.734Z,25.40
2018-07-08T18:47:14.291Z,25.40
2018-07-08T18:49:43.161Z,25.40
2018-07-08T18:52:11.672Z,25.30
2018-07-08T18:54:40.312Z,25.30
2018-07-08T18:57:08.852Z,25.20
2018-07-08T18:59:37.410Z,25.20
2018-07-08T19:02:05.952Z,25.20
2018-07-08T19:04:34.474Z,25.20
2018-07-08T19:07:03.019Z,25.10
2018-07-08T19:09:31.570Z,25.10
2018-07-08T19:12:00.153Z,25.00
2018-07-08T19:14:28.696Z,25.00
2018-07-08T19:16:57.271Z,24.90
2018-07-08T19:19:25.810Z,24.90
2018-07-08T19:21:54.349Z,24.90
2018-07-08T19:24:22.938Z,24.80
2018-07-08T19:26:51.527Z,24.80
2018-07-08T19:29:20.153Z,24.80
2018-07-08T19:34:17.278Z,24.70
2018-07-08T19:36:45.832Z,24.60
2018-07-08T19:39:14.464Z,24.60
2018-07-08T19:41:43.052Z,24.60
2018-07-08T19:44:11.646Z,24.60
2018-07-08T19:46:40.227Z,24.50
2018-07-08T19:49:08.828Z,24.40
2018-07-08T19:51:37.372Z,24.40
2018-07-08T19:54:05.909Z,24.40
2018-07-08T19:56:34.453Z,24.40
2018-07-08T19:59:03.044Z,24.30
2018-07-08T20:01:31.646Z,24.30
2018-07-08T20:04:00.264Z,24.30
2018-07-08T20:06:28.816Z,24.30
2018-07-08T20:08:57.420Z,24.20
2018-07-08T20:11:25.993Z,24.20
2018-07-08T20:13:54.556Z,24.20
2018-07-08T20:16:23.160Z,24.20
2018-07-08T20:18:51.756Z,24.20
2018-07-08T20:21:20.555Z,24.20
2018-07-08T20:23:48.968Z,24.20
2018-07-08T20:26:17.530Z,24.20
2018-07-08T20:28:46.059Z,24.20
2018-07-08T20:33:42.896Z,24.10
2018-07-08T20:36:11.433Z,24.10
2018-07-08T20:38:39.976Z,24.10
2018-07-08T20:41:08.833Z,24.00
2018-07-08T20:43:37.513Z,24.00
2018-07-08T20:46:06.557Z,23.90
2018-07-08T20:48:35.359Z,23.90
2018-07-08T20:51:04.298Z,23.90
2018-07-08T20:53:32.895Z,23.90
2018-07-08T20:56:01.723Z,23.90
2018-07-08T20:58:30.353Z,23.80
2018-07-08T21:00:58.968Z,23.90
2018-07-08T21:03:28.076Z,23.90
2018-07-08T21:05:56.671Z,23.90
2018-07-08T21:08:25.236Z,23.90
2018-07-08T21:10:53.769Z,24.00
2018-07-08T21:13:22.348Z,23.90
2018-07-08T21:15:50.975Z,23.90
2018-07-08T21:20:47.790Z,23.80
2018-07-08T21:23:16.340Z,23.70
2018-07-08T21:25:45.585Z,23.60
2018-07-08T21:28:14.158Z,23.60
2018-07-08T21:30:43.398Z,23.50
2018-07-08T21:33:12.100Z,23.40
2018-07-08T21:38:08.888Z,23.30
2018-07-08T21:40:37.450Z,23.20
2018-07-08T21:43:06.124Z,23.20
2018-07-08T21:45:34.673Z,23.10
2018-07-08T21:48:03.226Z,23.00
2018-07-08T21:53:00.023Z,22.80
2018-07-08T21:55:28.586Z,22.80
2018-07-08T21:57:57.181Z,22.80
2018-07-08T22:00:29.642Z,22.70
2018-07-08T22:05:27.162Z,22.50
2018-07-08T22:08:01.860Z,22.40
2018-07-08T22:10:31.022Z,22.40
2018-07-08T22:13:00.679Z,22.40
2018-07-08T22:15:29.339Z,22.30
2018-07-08T22:17:58.382Z,22.30
2018-07-08T22:20:27.584Z,22.30
2018-07-08T22:22:56.128Z,22.30
2018-07-08T22:25:24.690Z,22.30
2018-07-08T22:27:53.286Z,22.20
2018-07-08T22:30:21.831Z,22.10
2018-07-08T22:32:50.428Z,22.10
2018-07-08T22:35:19.004Z,22.00
2018-07-08T22:37:47.543Z,22.00
2018-07-08T22:40:16.141Z,21.90
2018-07-08T22:42:44.705Z,21.90
2018-07-08T22:45:13.289Z,21.90
2018-07-08T22:47:41.905Z,21.80
2018-07-08T22:50:10.484Z,21.70
2018-07-08T22:52:39.187Z,21.60
2018-07-08T22:55:07.753Z,21.50
2018-07-08T22:57:36.398Z,21.40
2018-07-08T23:00:16.099Z,21.30
2018-07-08T23:02:45.787Z,21.30
2018-07-08T23:05:14.772Z,21.20
2018-07-08T23:07:43.383Z,21.20
2018-07-08T23:10:12.589Z,21.20
2018-07-08T23:12:41.171Z,21.20
2018-07-08T23:15:09.737Z,21.20
2018-07-08T23:17:38.349Z,21.10
2018-07-08T23:20:06.928Z,21.10
2018-07-08T23:22:46.613Z,21.00
2018-07-08T23:25:15.174Z,20.90
2018-07-08T23:27:43.789Z,20.80
2018-07-08T23:32:40.723Z,20.80
2018-07-08T23:35:09.252Z,20.60
2018-07-08T23:37:37.837Z,20.50
2018-07-08T23:42:34.645Z,20.30
2018-07-08T23:45:03.247Z,20.30
2018-07-08T23:47:31.791Z,20.30
2018-07-08T23:50:00.446Z,20.40
2018-07-08T23:52:29.648Z,20.30
2018-07-08T23:54:58.248Z,20.30
2018-07-08T23:59:55.082Z,20.10
